メインページ
METAR-TAF:

METAR-TAF

空港 :

熊本空港

熊本, 日本

緯度: 32-50N, 経度: 130-51E, 海抜: 193m

現時点の気象観測

当レポートは21分前の07:00(UTC)に作成
の風 8kt
気温 30°C
湿度 59%
気圧 1005 hPa
視程10km以上
高度3500ftの雲はほとんどない
高度4500ftの千切れ雲あり
千切れ雲あり

METAR: RJFT 200700Z 09008KT 9999 FEW035 BKN045 BKN/// 30/21 Q1005

時間: 16:21 (07:21 UTC)

予報

当レポートは2時間15分前の05:06(UTC)に作成
予報は20日の 06時(UTC)から 21日の 12時(UTC)まで有効
北/北東の風 9kt
視程10km以上
高度4000ftの雲はほとんどない
高度6000ftの雲は散在している
21日の 00時(UTC)から 21日の 03時(UTC)まで徐々に
の風 15kt、最大25ktの突風を伴う

TAF: RJFT 200506Z 2006/2112 03009KT 9999 FEW040 SCT060 BECMG 2100/2103 09015G25KT

4,000以上の空港の気象観測と天気予報(METAR報とTAF報)

利用可能な観測所は地図上に黄色い丸と赤い丸で示す。

丸の上にカーソルを重ねると観測所名を参照できる。

次にクリックすると気象観測と天気予報を参照できる。

マップの切り替え:黒色「×」印の緑ボタンをクリックして拡大、「-」印の緑ボタンをクリックして縮小、緑色の三角印をクリックして隣りの地図に切り替え


METAR-TAF: